RJTY/OKO METAR and TAF weather

Enter ICAO airport designator
Station Type Date Time Source
RJTY METAR 2019/08/20 10:26 UTC NOAA

RJTY 201026Z AUTO 07004KT 1 1/4SM BR FEW060 25/24 A2988 RMK AO2 SLP116 FZRANO $


Station Type Date Time Source
RJTY Decoded METAR 2019/08/20 10:26 UTC NOAA

Yokota Ab, Japan (RJTY) 35-45N 139-21E 142M
Aug 20, 2019 - 06:26 AM EDT / 2019.08.20 1026 UTC
Wind: from the ENE (070 degrees) at 5 MPH (4 KT):0
Visibility: 1 1/4 mile(s):0
Sky conditions: mostly clear
Weather: mist
Temperature: 77 F (25 C)
Dew Point: 75 F (24 C)
Relative Humidity: 94%
Pressure (altimeter): 29.88 in. Hg (1011 hPa)
ob: RJTY 201026Z AUTO 07004KT 1 1/4SM BR FEW060 25/24 A2988 RMK AO2 SLP116 FZRANO
cycle: 10

Station Type Date Time Source
RJTY TAF 2019/08/20 09:42 UTC NOAA

TAF TAF
AMD RJTY 200925Z 2009/2111 VRB06KT 2600 -SHRA BR VCTS SCT015CB BKN030 QNH2980INS
TEMPO 2009/2011 4800 -TSRA SCT010CB BKN015
BECMG 2015/2016 VRB06KT 8000 BR BKN020 QNH2983INS TX30/2105Z TN23/2020Z

Example: see airport list